Time;durP1;ratioP1;P1;durP2;ratioP2;P2;SDS_P1;SDS_P2;PMS_P1;PMS_P2;Temp;Humidity;BMP_temperature;BMP_pressure;BME280_temperature;BME280_humidity;BME280_pressure;Samples;Min_cycle;Max_cycle;Signal;HPM_P1;HPM_P2
2022/12/31 00:01:21;;;;;;;189.32;120.03;;;7.60;99.90;;;;;;4993734;28;20038;-73
2022/12/31 00:03:47;;;;;;;156.65;106.47;;;7.50;99.90;;;;;;4999303;28;20041;-73
2022/12/31 00:06:19;;;;;;;166.38;112.18;;;7.50;99.90;;;;;;5013441;28;20030;-73
2022/12/31 00:08:45;;;;;;;249.13;158.20;;;7.40;99.90;;;;;;5000411;28;20028;-73
2022/12/31 00:11:11;;;;;;;286.08;188.32;;;7.40;99.90;;;;;;5000574;28;20026;-74
2022/12/31 00:13:38;;;;;;;233.80;156.77;;;7.40;99.90;;;;;;5004118;28;20040;-73
2022/12/31 00:16:09;;;;;;;279.13;185.02;;;7.40;99.90;;;;;;4996706;28;20428;-73
2022/12/31 00:18:35;;;;;;;185.35;119.57;;;7.30;99.90;;;;;;5004797;28;20381;-73
2022/12/31 00:21:05;;;;;;;223.35;147.85;;;7.30;99.90;;;;;;4994024;28;20050;-75
2022/12/31 00:23:31;;;;;;;182.80;114.38;;;7.20;99.90;;;;;;5006623;28;20025;-74
2022/12/31 00:26:02;;;;;;;183.88;125.53;;;7.20;99.90;;;;;;5000159;28;20033;-73
2022/12/31 00:28:28;;;;;;;168.98;110.68;;;7.20;99.90;;;;;;4994385;28;20030;-73
2022/12/31 00:30:53;;;;;;;131.68;89.90;;;7.10;99.90;;;;;;5005719;28;20084;-73
2022/12/31 00:33:19;;;;;;;140.68;90.93;;;7.10;99.90;;;;;;4993455;28;20492;-74
2022/12/31 00:35:45;;;;;;;112.72;79.20;;;7.10;99.90;;;;;;4993489;28;20030;-73
2022/12/31 00:38:11;;;;;;;95.65;65.00;;;7.10;99.90;;;;;;4995594;28;20532;-74
2022/12/31 00:40:37;;;;;;;133.27;83.38;;;7.10;99.90;;;;;;4992697;28;20042;-73
2022/12/31 00:43:02;;;;;;;144.75;95.97;;;7.10;99.90;;;;;;4996556;28;20049;-73
2022/12/31 00:45:28;;;;;;;103.60;66.07;;;7.10;99.90;;;;;;4992809;28;20034;-76
2022/12/31 00:47:54;;;;;;;119.40;75.82;;;7.20;99.90;;;;;;4993119;28;20093;-73
2022/12/31 00:50:20;;;;;;;81.00;54.58;;;7.10;99.90;;;;;;4992766;28;20053;-77
2022/12/31 00:52:46;;;;;;;87.15;52.28;;;7.10;99.90;;;;;;4992809;28;20018;-73
2022/12/31 00:55:11;;;;;;;66.20;47.05;;;7.10;99.90;;;;;;4992321;28;20026;-74
2022/12/31 00:57:37;;;;;;;79.68;52.17;;;7.10;99.90;;;;;;5006146;28;20112;-74
2022/12/31 01:00:06;;;;;;;69.00;48.05;;;7.00;99.90;;;;;;4993514;28;20371;-74
2022/12/31 01:02:32;;;;;;;73.10;48.78;;;7.00;99.90;;;;;;5006493;28;20022;-73
2022/12/31 01:04:57;;;;;;;74.00;51.22;;;7.00;99.90;;;;;;4993355;28;20112;-73
2022/12/31 01:07:23;;;;;;;80.38;51.65;;;6.90;99.90;;;;;;4993292;28;20019;-73
2022/12/31 01:09:49;;;;;;;63.35;44.35;;;6.80;99.90;;;;;;4992300;28;20414;-73
2022/12/31 01:12:15;;;;;;;77.15;48.78;;;6.90;99.90;;;;;;4993310;28;20386;-73
2022/12/31 01:14:41;;;;;;;72.80;53.22;;;6.80;99.90;;;;;;4993412;28;20022;-73
2022/12/31 01:17:07;;;;;;;58.63;42.55;;;6.80;99.90;;;;;;4993174;28;20034;-73
2022/12/31 01:19:33;;;;;;;53.13;36.97;;;6.80;99.90;;;;;;4993049;28;20044;-73
2022/12/31 01:21:58;;;;;;;52.42;34.53;;;6.80;99.90;;;;;;5005394;28;20045;-72
2022/12/31 01:24:24;;;;;;;43.15;32.58;;;6.80;99.90;;;;;;4981095;28;20026;-74
2022/12/31 01:26:50;;;;;;;57.15;39.58;;;6.80;99.90;;;;;;4992920;28;20054;-73
2022/12/31 01:29:16;;;;;;;58.47;35.35;;;6.80;99.90;;;;;;4993074;28;20429;-73
2022/12/31 01:31:42;;;;;;;54.25;32.45;;;6.80;99.90;;;;;;4996442;28;20061;-74
2022/12/31 01:34:08;;;;;;;57.30;34.05;;;6.80;99.90;;;;;;4993126;28;20062;-74
2022/12/31 01:36:35;;;;;;;48.78;29.08;;;6.80;99.90;;;;;;4995405;28;20061;-74
2022/12/31 01:39:04;;;;;;;47.22;29.92;;;6.80;99.90;;;;;;4996564;28;20026;-74
2022/12/31 01:41:38;;;;;;;58.30;36.45;;;6.80;99.90;;;;;;4996496;28;20036;-73
2022/12/31 01:44:10;;;;;;;58.42;38.50;;;6.80;99.90;;;;;;4996597;28;20029;-74
2022/12/31 01:46:59;;;;;;;61.88;36.20;;;6.80;99.90;;;;;;4999423;28;20048;-73
2022/12/31 01:49:37;;;;;;;59.45;38.10;;;6.80;99.90;;;;;;5003139;28;20073;-73
2022/12/31 01:52:03;;;;;;;52.10;32.17;;;6.80;99.90;;;;;;4995182;28;20018;-73
2022/12/31 01:54:32;;;;;;;45.67;28.40;;;6.80;99.90;;;;;;4996270;28;20030;-73
2022/12/31 01:56:59;;;;;;;56.17;38.17;;;6.80;99.90;;;;;;4996556;28;20034;-74
2022/12/31 01:59:26;;;;;;;60.08;35.67;;;6.80;99.90;;;;;;4996280;28;20030;-74
2022/12/31 02:01:53;;;;;;;53.25;35.47;;;6.70;99.90;;;;;;5004876;28;20112;-73
2022/12/31 02:04:22;;;;;;;64.28;41.08;;;6.70;99.90;;;;;;5000479;28;20117;-74
2022/12/31 02:07:05;;;;;;;65.47;42.47;;;6.70;99.90;;;;;;4996055;28;20042;-74
2022/12/31 02:09:33;;;;;;;68.47;39.03;;;6.80;99.90;;;;;;4996098;28;20490;-74
2022/12/31 02:11:59;;;;;;;65.07;40.25;;;6.80;99.90;;;;;;4996073;28;20094;-73
2022/12/31 02:14:32;;;;;;;51.53;33.88;;;6.80;99.90;;;;;;4996157;28;20022;-73
2022/12/31 02:17:16;;;;;;;;;;;6.80;99.90;;;;;;4996307;28;20098;-73
2022/12/31 02:20:00;;;;;;;36.63;23.20;;;6.80;99.90;;;;;;4995753;28;19918;-73
2022/12/31 02:23:14;;;;;;;38.15;23.08;;;6.80;99.90;;;;;;5002692;28;20046;-73
2022/12/31 02:25:51;;;;;;;39.28;22.55;;;6.90;99.90;;;;;;4995496;28;20026;-73
2022/12/31 02:28:17;;;;;;;37.13;23.92;;;6.90;99.90;;;;;;4994644;28;20529;-73
2022/12/31 02:30:49;;;;;;;44.53;24.88;;;7.00;99.90;;;;;;4995717;28;20019;-73
2022/12/31 02:33:59;;;;;;;39.20;26.20;;;7.00;99.90;;;;;;4998033;28;20386;-73
2022/12/31 02:36:29;;;;;;;53.15;31.15;;;7.10;99.90;;;;;;4992531;28;20061;-73
2022/12/31 02:38:56;;;;;;;50.97;32.35;;;7.20;99.90;;;;;;4995585;28;20541;-73
2022/12/31 02:44:29;;;;;;;39.05;23.48;;;7.30;99.90;;;;;;4995556;28;20030;-73
2022/12/31 02:47:16;;;;;;;47.90;30.30;;;7.30;99.90;;;;;;4982764;28;20061;-73
2022/12/31 02:50:09;;;;;;;49.67;29.50;;;7.30;99.90;;;;;;4995263;28;20145;-73
2022/12/31 02:53:07;;;;;;;38.90;26.83;;;7.30;99.90;;;;;;4995109;28;20086;-73
2022/12/31 02:55:35;;;;;;;40.42;24.90;;;7.20;99.90;;;;;;4995354;28;20048;-73
2022/12/31 02:58:13;;;;;;;34.67;20.13;;;7.20;99.90;;;;;;4994326;28;20015;-73
2022/12/31 03:03:40;;;;;;;37.38;24.40;;;7.20;99.90;;;;;;4994875;28;20033;-72
2022/12/31 03:06:07;;;;;;;42.00;25.55;;;7.10;99.90;;;;;;4984299;28;20355;-72
2022/12/31 03:09:11;;;;;;;41.28;24.50;;;7.10;99.90;;;;;;4994593;28;20033;-73
2022/12/31 03:12:45;;;;;;;32.63;21.02;;;6.90;99.90;;;;;;5010667;28;20105;-73
2022/12/31 03:14:05;;;;;;;31.05;20.08;;;6.80;99.90;;;;;;4994397;28;20027;-73
2022/12/31 03:16:30;;;;;;;33.53;20.92;;;6.90;99.90;;;;;;5002280;28;20442;-72
2022/12/31 03:27:10;;;;;;;33.53;22.05;;;6.90;99.90;;;;;;4994229;28;20022;-73
2022/12/31 03:29:36;;;;;;;38.25;22.50;;;6.90;99.90;;;;;;4994371;28;20467;-74
2022/12/31 03:32:02;;;;;;;32.45;20.90;;;7.00;99.90;;;;;;4994256;28;20022;-73
2022/12/31 03:34:28;;;;;;;33.15;20.90;;;7.00;99.90;;;;;;4995716;28;20397;-72
2022/12/31 03:36:54;;;;;;;40.90;20.95;;;7.10;99.90;;;;;;4992863;28;20019;-73
2022/12/31 03:39:19;;;;;;;37.70;21.90;;;7.10;99.90;;;;;;4991954;28;20354;-73
2022/12/31 03:41:45;;;;;;;45.50;23.08;;;7.20;99.90;;;;;;4994488;28;20061;-72
2022/12/31 03:44:11;;;;;;;38.42;24.75;;;7.30;99.90;;;;;;4992648;28;20031;-73
2022/12/31 03:46:37;;;;;;;43.97;23.95;;;7.40;99.90;;;;;;4994291;28;20030;-73
2022/12/31 03:49:02;;;;;;;40.13;23.02;;;7.40;99.90;;;;;;4994304;28;20065;-73
2022/12/31 03:51:28;;;;;;;38.55;21.17;;;7.60;99.90;;;;;;4993690;28;20022;-74
2022/12/31 03:53:54;;;;;;;32.28;20.23;;;7.60;99.90;;;;;;4994134;28;20023;-73
2022/12/31 03:56:20;;;;;;;48.05;25.33;;;7.60;99.90;;;;;;4993927;28;20030;-73
2022/12/31 03:58:45;;;;;;;42.85;24.95;;;7.60;99.90;;;;;;4993754;28;20034;-73
2022/12/31 04:01:11;;;;;;;36.58;23.92;;;7.50;99.90;;;;;;4993265;28;20038;-73
2022/12/31 04:03:37;;;;;;;35.42;24.35;;;7.50;99.90;;;;;;4993968;28;20030;-73
2022/12/31 04:06:03;;;;;;;41.45;24.50;;;7.50;99.90;;;;;;4993068;28;20117;-73
2022/12/31 04:08:28;;;;;;;32.92;22.75;;;7.50;99.90;;;;;;4993715;28;20536;-73
2022/12/31 04:10:54;;;;;;;44.97;30.42;;;7.60;99.90;;;;;;4993784;28;20038;-73
2022/12/31 04:13:20;;;;;;;45.72;29.77;;;7.50;99.90;;;;;;4993969;28;20027;-72
2022/12/31 04:15:49;;;;;;;45.03;26.38;;;7.60;99.90;;;;;;4998535;28;20397;-72
2022/12/31 04:18:15;;;;;;;39.17;27.88;;;7.50;99.90;;;;;;4993703;28;20109;-73
2022/12/31 04:20:41;;;;;;;46.60;31.92;;;7.50;99.90;;;;;;4993094;28;20545;-73
2022/12/31 04:23:07;;;;;;;50.05;31.77;;;7.40;99.90;;;;;;4991099;28;20594;-73
2022/12/31 04:25:32;;;;;;;53.20;36.58;;;7.40;99.90;;;;;;4980728;28;20097;-73
2022/12/31 04:27:58;;;;;;;59.33;41.13;;;7.20;99.90;;;;;;4985533;28;20038;-72
2022/12/31 04:30:24;;;;;;;56.83;39.03;;;7.10;99.90;;;;;;4987569;28;20026;-73
2022/12/31 04:32:50;;;;;;;60.88;38.40;;;7.10;99.90;;;;;;4982795;28;20022;-73
2022/12/31 04:35:16;;;;;;;53.47;36.08;;;7.20;99.90;;;;;;4993510;28;20474;-73
2022/12/31 04:37:41;;;;;;;51.78;37.78;;;7.10;99.90;;;;;;4984372;28;20045;-73
2022/12/31 04:40:08;;;;;;;55.78;38.20;;;7.10;99.90;;;;;;4989077;28;20042;-73
2022/12/31 04:42:34;;;;;;;50.08;36.53;;;7.10;99.90;;;;;;4986726;28;20023;-73
2022/12/31 04:45:00;;;;;;;45.67;31.70;;;7.20;99.90;;;;;;4983038;28;20062;-73
2022/12/31 04:47:26;;;;;;;47.83;32.90;;;7.20;99.90;;;;;;4979586;28;20066;-74
2022/12/31 04:49:52;;;;;;;39.33;28.08;;;7.20;99.90;;;;;;4980187;28;20027;-74
2022/12/31 04:52:18;;;;;;;47.08;30.70;;;7.20;99.90;;;;;;4983956;28;20114;-74
2022/12/31 04:54:44;;;;;;;50.17;33.83;;;7.10;99.90;;;;;;4983671;28;20053;-74
2022/12/31 04:57:09;;;;;;;63.22;38.00;;;7.10;99.90;;;;;;4982564;28;20046;-74
2022/12/31 04:59:35;;;;;;;67.32;40.10;;;7.00;99.90;;;;;;4983302;28;20441;-73
2022/12/31 05:02:01;;;;;;;61.17;40.47;;;7.00;99.90;;;;;;4993206;28;20038;-73
2022/12/31 05:04:27;;;;;;;70.22;42.97;;;7.00;99.90;;;;;;4993666;28;20049;-72
2022/12/31 05:06:52;;;;;;;59.15;37.70;;;7.00;99.90;;;;;;4993138;28;20370;-73
2022/12/31 05:09:18;;;;;;;61.28;39.10;;;7.00;99.90;;;;;;4993528;28;20549;-72
2022/12/31 05:11:44;;;;;;;53.75;33.95;;;7.00;99.90;;;;;;4995136;28;20025;-73
2022/12/31 05:14:10;;;;;;;53.85;35.95;;;6.90;99.90;;;;;;4979340;28;20031;-73
2022/12/31 05:16:36;;;;;;;55.25;37.28;;;7.00;99.90;;;;;;4996852;28;20164;-72
2022/12/31 05:19:05;;;;;;;57.53;36.53;;;7.00;99.90;;;;;;4996916;28;20025;-73
2022/12/31 05:21:30;;;;;;;60.65;39.15;;;7.10;99.90;;;;;;4996663;28;20046;-73
2022/12/31 05:23:56;;;;;;;59.17;40.97;;;7.10;99.90;;;;;;4996950;28;20048;-71
2022/12/31 05:26:22;;;;;;;57.30;39.42;;;7.10;99.90;;;;;;4996200;28;20089;-75
2022/12/31 05:28:48;;;;;;;64.80;43.35;;;7.10;99.90;;;;;;5009882;28;20026;-73
2022/12/31 05:31:14;;;;;;;52.85;39.00;;;7.10;99.90;;;;;;4995898;28;20105;-74
2022/12/31 05:33:39;;;;;;;72.68;49.55;;;7.10;99.90;;;;;;5009915;28;20160;-74
2022/12/31 05:36:06;;;;;;;79.22;49.22;;;7.00;99.90;;;;;;4996601;28;20026;-74
2022/12/31 05:38:31;;;;;;;77.22;51.30;;;7.00;99.90;;;;;;5004024;28;20022;-74
2022/12/31 05:40:59;;;;;;;74.95;45.97;;;7.00;99.90;;;;;;4996221;28;20046;-76
2022/12/31 05:43:25;;;;;;;62.72;44.85;;;7.10;99.90;;;;;;4996464;28;20026;-76
2022/12/31 05:45:51;;;;;;;73.63;49.08;;;7.10;99.90;;;;;;5005529;28;20026;-74
2022/12/31 05:48:16;;;;;;;106.18;72.68;;;7.10;99.90;;;;;;5004031;28;20081;-74
2022/12/31 05:50:42;;;;;;;55.25;36.28;;;7.00;99.90;;;;;;4996114;28;21538;-74
2022/12/31 05:53:08;;;;;;;47.42;33.78;;;7.10;99.90;;;;;;4995594;28;20038;-75
2022/12/31 05:55:34;;;;;;;42.30;28.25;;;7.10;99.90;;;;;;5003901;28;20049;-73
2022/12/31 05:58:00;;;;;;;43.95;29.95;;;7.10;99.90;;;;;;4998514;28;20026;-73
2022/12/31 06:00:26;;;;;;;40.67;28.73;;;7.20;99.90;;;;;;5004439;28;20125;-74
2022/12/31 06:02:52;;;;;;;45.38;30.17;;;7.20;99.90;;;;;;4995589;28;20034;-74
2022/12/31 06:05:17;;;;;;;36.45;25.15;;;7.30;99.90;;;;;;4995913;28;20534;-74
2022/12/31 06:07:43;;;;;;;40.33;27.23;;;7.30;99.90;;;;;;4995781;28;20033;-74
2022/12/31 06:10:09;;;;;;;44.30;29.10;;;7.40;99.90;;;;;;4995596;28;20105;-75
2022/12/31 06:12:35;;;;;;;41.65;29.77;;;7.50;99.90;;;;;;4995361;28;20041;-77
2022/12/31 06:15:01;;;;;;;42.85;28.23;;;7.50;99.90;;;;;;4995686;28;20034;-75
2022/12/31 06:17:31;;;;;;;48.33;30.92;;;7.60;99.90;;;;;;4996443;28;20106;-75
2022/12/31 06:19:57;;;;;;;57.53;34.47;;;7.70;99.90;;;;;;5003882;28;20602;-75
2022/12/31 06:22:23;;;;;;;95.57;53.33;;;7.60;99.90;;;;;;4994700;28;20065;-74
2022/12/31 06:24:49;;;;;;;48.22;31.92;;;7.60;99.90;;;;;;4980313;28;20475;-74
2022/12/31 06:27:14;;;;;;;44.88;29.67;;;7.50;99.90;;;;;;4976343;28;20035;-74
2022/12/31 06:29:40;;;;;;;41.60;27.52;;;7.50;99.90;;;;;;4975949;28;20015;-74
2022/12/31 06:32:06;;;;;;;32.75;23.30;;;7.60;99.90;;;;;;4978280;28;20437;-76
2022/12/31 06:34:32;;;;;;;44.38;32.00;;;7.50;99.90;;;;;;4982736;28;20494;-74
2022/12/31 06:36:58;;;;;;;33.53;21.27;;;7.50;99.90;;;;;;4975750;28;20053;-75
2022/12/31 06:39:24;;;;;;;55.78;38.65;;;7.50;99.90;;;;;;4975558;28;20027;-74
2022/12/31 06:41:50;;;;;;;49.13;33.45;;;7.50;99.90;;;;;;4975580;28;20464;-74
2022/12/31 06:44:15;;;;;;;48.47;33.10;;;7.50;99.90;;;;;;4975777;28;20463;-75
2022/12/31 06:46:41;;;;;;;37.33;25.05;;;7.60;99.90;;;;;;4975797;28;20035;-77
2022/12/31 06:49:07;;;;;;;35.00;23.85;;;7.60;99.90;;;;;;4982554;28;20035;-76
2022/12/31 06:51:33;;;;;;;46.70;30.88;;;7.70;99.90;;;;;;4975866;28;20030;-76
2022/12/31 06:53:59;;;;;;;46.40;31.70;;;7.80;99.90;;;;;;4975652;28;20022;-72
2022/12/31 06:56:27;;;;;;;35.30;24.85;;;8.00;99.90;;;;;;4975607;28;20031;-73
2022/12/31 06:58:54;;;;;;;40.65;26.75;;;8.00;99.90;;;;;;4975523;28;20019;-76
2022/12/31 07:01:41;;;;;;;63.30;39.25;;;8.20;99.90;;;;;;4975182;28;20047;-75
2022/12/31 07:04:29;;;;;;;76.22;49.05;;;8.20;99.90;;;;;;4977791;28;20518;-74
2022/12/31 07:07:15;;;;;;;87.15;54.70;;;8.30;99.90;;;;;;4975415;28;20023;-73
2022/12/31 07:09:41;;;;;;;90.43;56.17;;;8.40;99.90;;;;;;4934670;29;20071;-75
2022/12/31 07:12:33;;;;;;;125.43;82.35;;;8.50;99.90;;;;;;4934223;29;20114;-77
2022/12/31 07:15:15;;;;;;;129.68;84.97;;;8.50;99.90;;;;;;4938491;29;20118;-75
2022/12/31 07:18:06;;;;;;;112.47;74.03;;;8.50;99.90;;;;;;4934413;29;20026;-74
2022/12/31 07:20:32;;;;;;;114.25;75.20;;;8.60;99.90;;;;;;4934710;29;20091;-74
2022/12/31 07:22:58;;;;;;;121.57;83.75;;;8.60;99.90;;;;;;4942616;29;20127;-74
2022/12/31 07:25:24;;;;;;;135.93;91.63;;;8.70;99.90;;;;;;4949649;29;20035;-73
2022/12/31 07:27:50;;;;;;;125.35;89.28;;;8.70;99.90;;;;;;4954209;29;20074;-76
2022/12/31 07:30:22;;;;;;;138.55;87.30;;;8.70;99.90;;;;;;4942382;29;20392;-75
2022/12/31 07:33:05;;;;;;;87.22;61.70;;;8.80;99.90;;;;;;4941136;28;20137;-74
2022/12/31 07:35:31;;;;;;;75.55;50.15;;;8.70;99.90;;;;;;4946947;29;20627;-73
2022/12/31 07:38:30;;;;;;;76.80;50.47;;;8.70;99.90;;;;;;4953527;29;20099;-74
2022/12/31 07:41:10;;;;;;;76.60;50.08;;;8.70;99.90;;;;;;4953582;29;20039;-73
2022/12/31 07:43:46;;;;;;;77.35;51.80;;;8.60;99.90;;;;;;4953365;29;20043;-74
2022/12/31 07:46:34;;;;;;;125.63;85.05;;;8.50;99.90;;;;;;4964084;28;20085;-75
2022/12/31 07:49:02;;;;;;;95.95;67.40;;;8.40;99.90;;;;;;4981046;28;20034;-73
2022/12/31 07:51:29;;;;;;;62.72;42.83;;;8.40;99.90;;;;;;4994119;28;20031;-73
2022/12/31 07:53:54;;;;;;;63.10;41.80;;;8.30;99.90;;;;;;4983988;28;20029;-73
2022/12/31 07:56:20;;;;;;;61.63;44.83;;;8.40;99.90;;;;;;4975254;28;20026;-76
2022/12/31 07:59:08;;;;;;;70.35;50.38;;;8.50;99.90;;;;;;4974123;28;20397;-73
2022/12/31 08:01:47;;;;;;;78.60;58.45;;;8.60;99.90;;;;;;4979502;28;20446;-74
2022/12/31 08:04:27;;;;;;;77.88;53.95;;;8.70;99.90;;;;;;4985066;28;20497;-75
2022/12/31 08:07:18;;;;;;;75.97;55.33;;;8.80;99.90;;;;;;4979317;28;20475;-73
2022/12/31 08:10:02;;;;;;;73.13;50.22;;;8.90;99.90;;;;;;4984406;28;20363;-73
2022/12/31 08:12:33;;;;;;;83.28;56.75;;;9.00;99.90;;;;;;4983378;28;20019;-73
2022/12/31 08:14:59;;;;;;;76.07;56.97;;;9.10;99.90;;;;;;4983137;28;20508;-76
2022/12/31 08:17:25;;;;;;;78.18;59.30;;;9.30;99.90;;;;;;4984669;28;20359;-74
2022/12/31 08:19:52;;;;;;;88.53;61.80;;;9.40;99.90;;;;;;4983835;28;20037;-75
2022/12/31 08:22:24;;;;;;;82.20;60.15;;;9.50;99.90;;;;;;4996455;28;20052;-75
2022/12/31 08:25:07;;;;;;;88.13;67.07;;;9.60;99.90;;;;;;4996825;28;20023;-73
2022/12/31 08:28:12;;;;;;;88.93;64.53;;;9.70;99.90;;;;;;4988169;28;20041;-73
2022/12/31 08:31:06;;;;;;;73.45;55.80;;;9.80;99.90;;;;;;4970470;28;20034;-74
2022/12/31 08:33:50;;;;;;;72.05;49.60;;;9.90;99.90;;;;;;5003347;28;20027;-74
2022/12/31 08:36:37;;;;;;;65.97;47.47;;;9.90;99.90;;;;;;5009136;28;20049;-74
2022/12/31 08:39:21;;;;;;;65.95;48.05;;;10.00;99.90;;;;;;5000476;28;20117;-74
2022/12/31 08:41:52;;;;;;;74.75;54.78;;;10.20;99.90;;;;;;4992761;28;20042;-73
2022/12/31 08:44:35;;;;;;;79.60;59.33;;;10.30;99.90;;;;;;4994474;28;20037;-75
2022/12/31 08:47:21;;;;;;;99.83;74.33;;;10.50;99.90;;;;;;4997369;28;20022;-74
2022/12/31 08:49:47;;;;;;;115.30;82.55;;;10.50;99.90;;;;;;4995404;28;20501;-73
2022/12/31 08:52:24;;;;;;;118.00;87.43;;;10.60;99.90;;;;;;4996982;28;20022;-76
2022/12/31 08:54:50;;;;;;;119.88;86.88;;;10.70;99.90;;;;;;4996560;28;20465;-73
2022/12/31 08:57:28;;;;;;;134.82;97.47;;;10.70;99.90;;;;;;5000526;28;20073;-73
2022/12/31 09:00:08;;;;;;;151.52;107.05;;;10.70;99.90;;;;;;4999409;28;20034;-74
2022/12/31 09:02:55;;;;;;;116.78;79.90;;;10.70;99.90;;;;;;4996902;28;20022;-74
2022/12/31 09:05:23;;;;;;;85.63;63.58;;;10.60;99.90;;;;;;5001886;28;20030;-76
2022/12/31 09:08:14;;;;;;;77.65;57.33;;;10.60;99.90;;;;;;4996836;28;20032;-75
2022/12/31 09:11:03;;;;;;;68.32;48.63;;;10.60;99.90;;;;;;4997667;28;20028;-74
2022/12/31 09:13:47;;;;;;;68.88;48.47;;;10.50;99.90;;;;;;5000107;28;20034;-73
2022/12/31 09:16:22;;;;;;;69.63;48.10;;;10.50;99.90;;;;;;4995490;28;20050;-75
2022/12/31 09:18:48;;;;;;;64.32;49.03;;;10.60;99.90;;;;;;4997181;28;20026;-75
2022/12/31 09:21:15;;;;;;;84.40;58.88;;;10.50;99.90;;;;;;4994737;28;20414;-76
2022/12/31 09:23:42;;;;;;;93.93;65.38;;;10.60;99.90;;;;;;4995429;28;20018;-75
2022/12/31 09:26:30;;;;;;;72.75;51.67;;;10.70;99.90;;;;;;4995544;28;20057;-77
2022/12/31 09:29:03;;;;;;;62.90;45.40;;;10.70;99.90;;;;;;4995384;28;20045;-74
2022/12/31 09:31:48;;;;;;;64.93;46.88;;;10.70;99.90;;;;;;4995031;28;20037;-74
2022/12/31 09:34:45;;;;;;;61.50;44.30;;;10.90;99.90;;;;;;4994786;28;20069;-77
2022/12/31 09:37:44;;;;;;;54.75;39.88;;;11.00;99.90;;;;;;4996144;28;20113;-75
2022/12/31 09:40:20;;;;;;;55.33;40.00;;;11.20;99.90;;;;;;4891016;29;20056;-73
2022/12/31 09:43:17;;;;;;;61.97;42.65;;;11.50;99.90;;;;;;4898857;29;20168;-76
2022/12/31 09:46:07;;;;;;;63.72;41.08;;;11.80;99.90;;;;;;4898688;29;20113;-76
2022/12/31 09:49:03;;;;;;;72.45;50.20;;;12.10;99.90;;;;;;4898719;29;20040;-75
2022/12/31 09:51:37;;;;;;;69.90;49.92;;;12.30;99.90;;;;;;4898803;29;20040;-74
2022/12/31 09:54:21;;;;;;;76.78;53.75;;;12.40;99.90;;;;;;4898574;29;20205;-75
2022/12/31 09:56:59;;;;;;;78.10;57.85;;;12.70;99.90;;;;;;4897882;29;20521;-73
2022/12/31 09:59:46;;;;;;;77.90;57.60;;;12.70;99.90;;;;;;4898452;29;20036;-73
2022/12/31 10:02:33;;;;;;;83.70;57.83;;;12.90;99.90;;;;;;4898368;29;20043;-73
2022/12/31 10:05:08;;;;;;;83.88;57.70;;;13.00;99.90;;;;;;4899182;29;20040;-73
2022/12/31 10:07:48;;;;;;;84.10;58.47;;;13.30;99.90;;;;;;4895065;29;20029;-73
2022/12/31 10:10:36;;;;;;;88.88;61.15;;;13.60;99.90;;;;;;4897304;29;20428;-72
2022/12/31 10:13:08;;;;;;;85.13;61.97;;;13.60;99.90;;;;;;4900420;29;20429;-72
2022/12/31 10:15:45;;;;;;;86.35;59.30;;;13.80;99.90;;;;;;4915260;29;20040;-73
2022/12/31 10:18:11;;;;;;;84.25;58.40;;;14.00;99.90;;;;;;5001299;28;20473;-72
2022/12/31 10:21:18;;;;;;;88.70;60.95;;;14.20;99.90;;;;;;5004963;28;20121;-72
2022/12/31 10:23:44;;;;;;;84.00;62.90;;;14.30;99.90;;;;;;4905927;29;20056;-72
2022/12/31 10:26:36;;;;;;;90.00;66.35;;;14.50;99.90;;;;;;4906098;29;20125;-75
2022/12/31 10:29:10;;;;;;;82.95;59.72;;;14.60;99.90;;;;;;4897668;29;20399;-73
2022/12/31 10:32:03;;;;;;;71.10;49.50;;;14.60;99.90;;;;;;4897712;29;20112;-72
2022/12/31 10:34:46;;;;;;;66.35;45.65;;;14.70;99.90;;;;;;4903562;29;20044;-73
2022/12/31 10:37:43;;;;;;;63.38;48.10;;;14.70;99.90;;;;;;4906455;29;20084;-72
2022/12/31 10:40:37;;;;;;;67.40;49.30;;;14.80;99.90;;;;;;4907712;29;20571;-71
2022/12/31 10:43:41;;;;;;;60.83;43.67;;;14.80;99.90;;;;;;4873747;29;20137;-72
2022/12/31 10:46:19;;;;;;;;;;;14.70;99.90;;;;;;4897178;29;20024;-75
2022/12/31 10:49:08;;;;;;;37.05;24.95;;;14.70;99.90;;;;;;4893881;29;19982;-73
2022/12/31 10:51:46;;;;;;;33.38;22.38;;;14.70;99.90;;;;;;4900613;29;20104;-72
2022/12/31 10:54:45;;;;;;;43.30;27.15;;;14.70;99.90;;;;;;4905891;29;20020;-72
2022/12/31 10:57:26;;;;;;;52.90;29.83;;;14.70;99.90;;;;;;4931895;28;20042;-72
2022/12/31 11:00:11;;;;;;;69.53;34.95;;;14.70;99.90;;;;;;4997756;28;20490;-72
2022/12/31 11:03:08;;;;;;;133.00;53.05;;;14.60;99.90;;;;;;4998459;28;20439;-74
2022/12/31 11:05:49;;;;;;;158.43;78.40;;;14.70;99.90;;;;;;4998029;28;20073;-75
2022/12/31 11:09:16;;;;;;;149.50;73.30;;;14.60;99.90;;;;;;4993929;28;20042;-72
2022/12/31 11:12:03;;;;;;;117.35;57.75;;;14.60;99.90;;;;;;4907841;29;20028;-73
2022/12/31 11:14:44;;;;;;;75.38;36.67;;;14.80;99.90;;;;;;4906517;29;20036;-73
2022/12/31 11:17:34;;;;;;;78.43;40.15;;;14.80;99.90;;;;;;4898214;29;20040;-73
2022/12/31 11:20:13;;;;;;;65.78;36.35;;;14.90;99.90;;;;;;4907930;29;20652;-74
2022/12/31 11:23:03;;;;;;;65.22;35.75;;;15.00;99.90;;;;;;4903897;29;20053;-73
2022/12/31 11:25:46;;;;;;;65.18;35.88;;;15.10;99.90;;;;;;4905981;29;20099;-74
2022/12/31 11:28:30;;;;;;;72.93;37.88;;;15.30;99.90;;;;;;4896601;29;20536;-72
2022/12/31 11:31:21;;;;;;;75.40;41.45;;;15.40;99.90;;;;;;4905380;29;20473;-75
2022/12/31 11:33:58;;;;;;;88.90;49.42;;;15.40;99.90;;;;;;4908396;29;20440;-74
2022/12/31 11:36:42;;;;;;;90.90;51.53;;;15.50;99.90;;;;;;4915431;29;20052;-77
2022/12/31 11:39:28;;;;;;;87.25;51.45;;;15.60;99.90;;;;;;4899731;29;20048;-74
2022/12/31 11:42:15;;;;;;;85.63;53.38;;;15.60;99.90;;;;;;4934635;28;20138;-73
2022/12/31 11:45:05;;;;;;;92.80;53.05;;;15.70;99.90;;;;;;4987476;28;20026;-73
2022/12/31 11:47:40;;;;;;;96.93;54.03;;;15.80;99.90;;;;;;4994291;28;20027;-75
2022/12/31 11:50:12;;;;;;;90.47;55.22;;;15.90;99.90;;;;;;4997233;28;20149;-76
2022/12/31 11:52:58;;;;;;;96.93;57.40;;;16.00;99.90;;;;;;5012983;28;20034;-73
2022/12/31 11:55:36;;;;;;;94.35;61.25;;;16.10;99.90;;;;;;5000781;28;20088;-73
2022/12/31 11:58:15;;;;;;;107.38;64.43;;;16.30;99.90;;;;;;4993563;28;20038;-72
2022/12/31 12:01:05;;;;;;;104.00;59.67;;;16.40;99.90;;;;;;4993371;28;20038;-72
2022/12/31 12:03:32;;;;;;;100.47;61.72;;;16.50;99.90;;;;;;4992166;28;20449;-73
2022/12/31 12:05:58;;;;;;;90.97;60.60;;;16.50;99.90;;;;;;4993908;28;20394;-73
2022/12/31 12:08:26;;;;;;;72.07;42.25;;;16.50;99.90;;;;;;4990922;28;20386;-73
2022/12/31 12:11:05;;;;;;;68.93;41.25;;;16.50;99.90;;;;;;4998166;28;20021;-73
2022/12/31 12:13:31;;;;;;;56.28;32.63;;;16.60;99.90;;;;;;4993157;28;20018;-74
2022/12/31 12:16:00;;;;;;;45.42;26.55;;;16.60;99.90;;;;;;4991762;28;20018;-74
2022/12/31 12:18:35;;;;;;;48.80;27.17;;;16.60;99.90;;;;;;4992141;28;20037;-74
2022/12/31 12:21:09;;;;;;;48.55;30.27;;;16.70;99.90;;;;;;4988368;28;20046;-73
2022/12/31 12:23:35;;;;;;;60.97;31.15;;;16.70;99.90;;;;;;4992294;28;20367;-74
2022/12/31 12:26:03;;;;;;;60.40;35.80;;;16.70;99.90;;;;;;4991887;28;20120;-74
2022/12/31 12:28:41;;;;;;;57.38;32.58;;;16.80;99.90;;;;;;4992468;28;20022;-75
2022/12/31 12:31:21;;;;;;;59.53;35.03;;;16.80;99.90;;;;;;4992400;28;20367;-74
2022/12/31 12:33:48;;;;;;;58.83;36.70;;;16.90;99.90;;;;;;4992059;28;20494;-74
2022/12/31 12:36:16;;;;;;;57.65;38.92;;;16.90;99.90;;;;;;4992519;28;20054;-76
2022/12/31 12:38:42;;;;;;;61.25;42.28;;;17.00;99.90;;;;;;4992248;28;20014;-74
2022/12/31 12:41:20;;;;;;;57.92;41.55;;;17.00;99.90;;;;;;4993005;28;20117;-73
2022/12/31 12:43:46;;;;;;;72.15;48.10;;;17.00;99.90;;;;;;4985998;28;20037;-74
2022/12/31 12:46:26;;;;;;;66.65;46.88;;;17.00;99.90;;;;;;4991697;28;20030;-74
2022/12/31 12:48:56;;;;;;;56.78;42.08;;;17.00;99.90;;;;;;4991935;28;20034;-74
2022/12/31 12:51:40;;;;;;;65.15;42.05;;;17.00;99.90;;;;;;4992016;28;20125;-74
2022/12/31 12:54:24;;;;;;;64.75;43.33;;;17.00;99.90;;;;;;4990958;28;20065;-75
2022/12/31 12:57:09;;;;;;;58.45;42.47;;;17.00;99.90;;;;;;4990847;28;20025;-74
2022/12/31 13:00:28;;;;;;;61.55;44.60;;;16.90;99.90;;;;;;4991873;28;20050;-75
2022/12/31 13:03:25;;;;;;;71.32;46.17;;;16.90;99.90;;;;;;4989919;28;20409;-75
2022/12/31 13:06:04;;;;;;;70.57;48.58;;;16.90;99.90;;;;;;4990230;28;20034;-75
2022/12/31 13:08:35;;;;;;;67.72;50.25;;;16.90;99.90;;;;;;4990839;28;20039;-72
2022/12/31 13:11:31;;;;;;;70.65;50.47;;;16.90;99.90;;;;;;4990984;28;20031;-74
2022/12/31 13:14:22;;;;;;;64.57;44.05;;;16.90;99.90;;;;;;4980797;28;20038;-72
2022/12/31 13:16:50;;;;;;;72.97;47.28;;;16.80;99.90;;;;;;4991210;28;20023;-71
2022/12/31 13:19:33;;;;;;;64.30;44.58;;;16.90;99.90;;;;;;4991214;28;20041;-72
2022/12/31 13:22:03;;;;;;;71.70;47.88;;;16.90;99.90;;;;;;4990930;28;20064;-72